sensor_id;sensor_type;location;lat;lon;timestamp;pressure;altitude;pressure_sealevel;temperature;humidity
9229;BME280;4649;42.644;23.284;2022-08-03T00:02:02;93079.84;;;19.49;59.85
9229;BME280;4649;42.644;23.284;2022-08-03T00:04:30;93086.63;;;19.40;59.18
9229;BME280;4649;42.644;23.284;2022-08-03T00:06:57;93059.72;;;19.24;59.49
9229;BME280;4649;42.644;23.284;2022-08-03T00:09:23;93086.09;;;19.57;58.49
9229;BME280;4649;42.644;23.284;2022-08-03T00:11:50;93084.63;;;19.78;57.25
9229;BME280;4649;42.644;23.284;2022-08-03T00:14:17;93077.31;;;19.80;57.93
9229;BME280;4649;42.644;23.284;2022-08-03T00:16:44;93152.06;;;20.31;59.23
9229;BME280;4649;42.644;23.284;2022-08-03T00:19:10;93065.44;;;19.70;59.39
9229;BME280;4649;42.644;23.284;2022-08-03T00:21:38;93058.66;;;19.64;59.77
9229;BME280;4649;42.644;23.284;2022-08-03T00:24:06;93060.09;;;19.65;59.31
9229;BME280;4649;42.644;23.284;2022-08-03T00:26:32;93142.53;;;20.32;58.82
9229;BME280;4649;42.644;23.284;2022-08-03T00:28:59;93009.03;;;19.40;60.24
9229;BME280;4649;42.644;23.284;2022-08-03T00:31:26;93094.91;;;20.07;59.23
9229;BME280;4649;42.644;23.284;2022-08-03T00:33:53;93165.59;;;20.59;58.75
9229;BME280;4649;42.644;23.284;2022-08-03T00:36:20;93074.56;;;19.88;60.36
9229;BME280;4649;42.644;23.284;2022-08-03T00:38:48;93155.34;;;20.44;60.24
9229;BME280;4649;42.644;23.284;2022-08-03T00:41:14;93152.78;;;20.39;60.29
9229;BME280;4649;42.644;23.284;2022-08-03T00:43:41;93071.66;;;19.78;60.15
9229;BME280;4649;42.644;23.284;2022-08-03T00:46:09;92991.81;;;19.24;60.36
9229;BME280;4649;42.644;23.284;2022-08-03T00:48:36;93070.38;;;19.79;61.09
9229;BME280;4649;42.644;23.284;2022-08-03T00:51:03;93149.31;;;20.31;61.25
9229;BME280;4649;42.644;23.284;2022-08-03T00:53:31;93144.56;;;20.09;61.55
9229;BME280;4649;42.644;23.284;2022-08-03T00:55:59;93056.22;;;19.31;61.59
9229;BME280;4649;42.644;23.284;2022-08-03T00:58:26;93143.28;;;20.10;61.48
9229;BME280;4649;42.644;23.284;2022-08-03T01:00:53;93079.72;;;19.61;62.42
9229;BME280;4649;42.644;23.284;2022-08-03T01:03:19;93069.63;;;19.57;62.55
9229;BME280;4649;42.644;23.284;2022-08-03T01:05:52;93017.06;;;19.15;62.87
9229;BME280;4649;42.644;23.284;2022-08-03T01:08:24;93146.19;;;20.12;62.98
9229;BME280;4649;42.644;23.284;2022-08-03T01:11:01;93094.34;;;19.71;62.46
9229;BME280;4649;42.644;23.284;2022-08-03T01:13:40;93075.84;;;19.57;62.54
9229;BME280;4649;42.644;23.284;2022-08-03T01:16:16;93142.38;;;20.15;61.73
9229;BME280;4649;42.644;23.284;2022-08-03T01:18:48;93141.63;;;20.07;62.03
9229;BME280;4649;42.644;23.284;2022-08-03T01:21:24;93133.56;;;20.02;62.04
9229;BME280;4649;42.644;23.284;2022-08-03T01:24:05;93076.19;;;19.46;61.91
9229;BME280;4649;42.644;23.284;2022-08-03T01:26:54;93071.09;;;19.43;64.23
9229;BME280;4649;42.644;23.284;2022-08-03T01:29:51;93113.78;;;19.81;63.83
9229;BME280;4649;42.644;23.284;2022-08-03T01:32:21;93131.19;;;19.91;64.01
9229;BME280;4649;42.644;23.284;2022-08-03T01:34:54;93132.84;;;19.94;63.89
9229;BME280;4649;42.644;23.284;2022-08-03T01:37:29;93048.53;;;19.22;65.93
9229;BME280;4649;42.644;23.284;2022-08-03T01:40:00;93067.06;;;19.44;66.42
9229;BME280;4649;42.644;23.284;2022-08-03T01:42:28;93138.13;;;19.77;67.03
9229;BME280;4649;42.644;23.284;2022-08-03T01:44:58;93057.88;;;19.19;67.25
9229;BME280;4649;42.644;23.284;2022-08-03T01:47:27;93056.63;;;18.77;65.79
9229;BME280;4649;42.644;23.284;2022-08-03T01:49:56;93054.59;;;18.70;66.04
9229;BME280;4649;42.644;23.284;2022-08-03T01:52:24;93064.25;;;18.64;66.58
9229;BME280;4649;42.644;23.284;2022-08-03T01:54:52;93043.66;;;18.78;66.41
9229;BME280;4649;42.644;23.284;2022-08-03T01:57:20;93142.09;;;19.39;67.52
9229;BME280;4649;42.644;23.284;2022-08-03T01:59:49;93148.31;;;19.47;67.05
9229;BME280;4649;42.644;23.284;2022-08-03T02:02:18;93099.19;;;19.13;69.41
9229;BME280;4649;42.644;23.284;2022-08-03T02:04:46;93134.38;;;19.45;67.49
9229;BME280;4649;42.644;23.284;2022-08-03T02:07:14;93052.56;;;18.71;68.70
9229;BME280;4649;42.644;23.284;2022-08-03T02:09:44;93070.19;;;18.83;69.94
9229;BME280;4649;42.644;23.284;2022-08-03T02:12:12;92998.75;;;18.38;69.90
9229;BME280;4649;42.644;23.284;2022-08-03T02:14:41;93055.56;;;18.88;67.06
9229;BME280;4649;42.644;23.284;2022-08-03T02:17:09;93098.44;;;19.13;67.20
9229;BME280;4649;42.644;23.284;2022-08-03T02:19:39;93043.47;;;18.76;66.93
9229;BME280;4649;42.644;23.284;2022-08-03T02:22:10;93134.78;;;19.41;67.26
9229;BME280;4649;42.644;23.284;2022-08-03T02:24:37;93133.13;;;19.46;68.75
9229;BME280;4649;42.644;23.284;2022-08-03T02:27:09;93132.56;;;19.47;67.72
9229;BME280;4649;42.644;23.284;2022-08-03T02:29:38;93070.75;;;18.89;68.62
9229;BME280;4649;42.644;23.284;2022-08-03T02:32:09;93126.66;;;19.28;70.37
9229;BME280;4649;42.644;23.284;2022-08-03T02:34:39;93044.16;;;18.61;71.56
9229;BME280;4649;42.644;23.284;2022-08-03T02:37:09;93061.00;;;18.73;70.81
9229;BME280;4649;42.644;23.284;2022-08-03T02:39:38;93046.03;;;18.81;68.86
9229;BME280;4649;42.644;23.284;2022-08-03T02:42:08;93044.56;;;18.73;68.21
9229;BME280;4649;42.644;23.284;2022-08-03T02:44:36;93045.06;;;18.64;67.03
9229;BME280;4649;42.644;23.284;2022-08-03T02:47:07;93121.56;;;19.32;66.88
9229;BME280;4649;42.644;23.284;2022-08-03T02:49:35;93038.31;;;18.72;69.30
9229;BME280;4649;42.644;23.284;2022-08-03T02:52:08;93125.78;;;19.26;66.94
9229;BME280;4649;42.644;23.284;2022-08-03T02:54:37;93058.88;;;19.01;65.65
9229;BME280;4649;42.644;23.284;2022-08-03T02:57:06;93081.44;;;19.07;65.23
9229;BME280;4649;42.644;23.284;2022-08-03T02:59:33;93037.09;;;18.88;65.17
9229;BME280;4649;42.644;23.284;2022-08-03T03:02:01;93130.38;;;19.53;65.34
9229;BME280;4649;42.644;23.284;2022-08-03T03:04:29;93016.28;;;18.42;68.08
9229;BME280;4649;42.644;23.284;2022-08-03T03:06:56;93134.53;;;19.24;67.72
9229;BME280;4649;42.644;23.284;2022-08-03T03:09:25;93066.25;;;18.21;69.85
9229;BME280;4649;42.644;23.284;2022-08-03T03:11:52;93059.88;;;17.98;71.43
9229;BME280;4649;42.644;23.284;2022-08-03T03:14:20;93054.66;;;18.15;71.19
9229;BME280;4649;42.644;23.284;2022-08-03T03:16:47;93143.31;;;18.80;71.92
9229;BME280;4649;42.644;23.284;2022-08-03T03:19:15;93075.44;;;18.31;72.25
9229;BME280;4649;42.644;23.284;2022-08-03T03:21:43;93156.47;;;18.82;72.34
9229;BME280;4649;42.644;23.284;2022-08-03T03:24:11;93178.03;;;18.78;72.28
9229;BME280;4649;42.644;23.284;2022-08-03T03:26:39;93163.06;;;18.86;72.59
9229;BME280;4649;42.644;23.284;2022-08-03T03:29:06;93107.69;;;18.52;71.83
9229;BME280;4649;42.644;23.284;2022-08-03T03:31:34;93170.97;;;18.62;72.15
9229;BME280;4649;42.644;23.284;2022-08-03T03:34:02;93111.06;;;18.10;73.98
9229;BME280;4649;42.644;23.284;2022-08-03T03:36:37;92981.84;;;17.15;73.83
9229;BME280;4649;42.644;23.284;2022-08-03T03:39:06;93158.41;;;18.38;74.65
9229;BME280;4649;42.644;23.284;2022-08-03T03:41:33;93123.56;;;18.19;74.29
9229;BME280;4649;42.644;23.284;2022-08-03T03:44:02;93178.28;;;18.59;74.67
9229;BME280;4649;42.644;23.284;2022-08-03T03:46:29;93162.22;;;18.63;73.73
9229;BME280;4649;42.644;23.284;2022-08-03T03:48:56;93146.31;;;18.62;74.79
9229;BME280;4649;42.644;23.284;2022-08-03T03:51:23;93170.63;;;18.65;73.32
9229;BME280;4649;42.644;23.284;2022-08-03T03:53:54;93093.84;;;18.02;73.02
9229;BME280;4649;42.644;23.284;2022-08-03T03:56:21;93115.25;;;18.32;73.29
9229;BME280;4649;42.644;23.284;2022-08-03T03:58:48;93061.88;;;18.25;71.93
9229;BME280;4649;42.644;23.284;2022-08-03T04:01:16;93076.97;;;18.46;72.80
9229;BME280;4649;42.644;23.284;2022-08-03T04:03:43;93177.75;;;19.39;73.40
9229;BME280;4649;42.644;23.284;2022-08-03T04:06:10;93119.31;;;19.08;72.04
9229;BME280;4649;42.644;23.284;2022-08-03T04:08:55;93107.81;;;19.17;71.69
9229;BME280;4649;42.644;23.284;2022-08-03T04:11:42;93082.56;;;19.26;69.59
9229;BME280;4649;42.644;23.284;2022-08-03T04:14:11;93168.94;;;20.05;69.86
9229;BME280;4649;42.644;23.284;2022-08-03T04:16:43;93126.38;;;19.69;70.42
9229;BME280;4649;42.644;23.284;2022-08-03T04:19:14;93185.41;;;20.27;70.81
9229;BME280;4649;42.644;23.284;2022-08-03T04:21:46;93173.41;;;21.07;66.18
9229;BME280;4649;42.644;23.284;2022-08-03T04:24:14;93092.84;;;21.38;61.76
9229;BME280;4649;42.644;23.284;2022-08-03T04:26:42;93174.06;;;22.66;59.33
9229;BME280;4649;42.644;23.284;2022-08-03T04:29:11;93105.56;;;22.72;58.04
9229;BME280;4649;42.644;23.284;2022-08-03T04:31:41;93127.41;;;23.71;53.46
9229;BME280;4649;42.644;23.284;2022-08-03T04:34:09;93121.22;;;24.89;51.86
9229;BME280;4649;42.644;23.284;2022-08-03T04:36:38;93177.53;;;25.95;49.80
9229;BME280;4649;42.644;23.284;2022-08-03T04:39:13;93087.69;;;26.00;46.68
9229;BME280;4649;42.644;23.284;2022-08-03T04:41:42;93174.13;;;26.76;45.58
9229;BME280;4649;42.644;23.284;2022-08-03T04:44:10;93176.34;;;27.40;43.96
9229;BME280;4649;42.644;23.284;2022-08-03T04:46:41;93119.75;;;26.22;44.31
9229;BME280;4649;42.644;23.284;2022-08-03T04:49:09;93115.44;;;26.40;46.08
9229;BME280;4649;42.644;23.284;2022-08-03T04:51:36;93131.50;;;27.13;44.92
9229;BME280;4649;42.644;23.284;2022-08-03T04:54:05;93102.34;;;27.35;43.62
9229;BME280;4649;42.644;23.284;2022-08-03T04:56:32;93151.34;;;27.61;43.58
9229;BME280;4649;42.644;23.284;2022-08-03T04:58:59;93114.44;;;27.28;43.40
9229;BME280;4649;42.644;23.284;2022-08-03T05:01:26;93190.16;;;28.46;41.53
9229;BME280;4649;42.644;23.284;2022-08-03T05:03:54;93191.28;;;28.87;40.87
9229;BME280;4649;42.644;23.284;2022-08-03T05:06:21;93134.09;;;28.75;40.13
9229;BME280;4649;42.644;23.284;2022-08-03T05:08:48;93201.53;;;29.42;39.54
9229;BME280;4649;42.644;23.284;2022-08-03T05:11:15;93180.22;;;29.12;39.81
9229;BME280;4649;42.644;23.284;2022-08-03T05:13:42;93125.72;;;28.86;39.62
9229;BME280;4649;42.644;23.284;2022-08-03T05:16:09;93213.38;;;29.54;39.12
9229;BME280;4649;42.644;23.284;2022-08-03T05:18:36;93153.53;;;29.32;39.31
9229;BME280;4649;42.644;23.284;2022-08-03T05:21:04;93146.53;;;29.80;38.02
9229;BME280;4649;42.644;23.284;2022-08-03T05:23:31;93214.72;;;30.77;36.98
9229;BME280;4649;42.644;23.284;2022-08-03T05:25:58;93158.31;;;30.67;36.24
9229;BME280;4649;42.644;23.284;2022-08-03T05:28:25;93139.38;;;30.65;35.96
9229;BME280;4649;42.644;23.284;2022-08-03T05:30:51;93224.63;;;31.45;35.30
9229;BME280;4649;42.644;23.284;2022-08-03T05:33:18;93220.78;;;31.65;35.04
9229;BME280;4649;42.644;23.284;2022-08-03T05:35:45;93160.50;;;31.08;35.06
9229;BME280;4649;42.644;23.284;2022-08-03T05:38:13;93196.63;;;31.71;34.56
9229;BME280;4649;42.644;23.284;2022-08-03T05:40:40;93146.44;;;31.06;35.56
9229;BME280;4649;42.644;23.284;2022-08-03T05:43:07;93144.97;;;31.05;35.39
9229;BME280;4649;42.644;23.284;2022-08-03T05:45:33;93164.84;;;31.38;34.42
9229;BME280;4649;42.644;23.284;2022-08-03T05:48:03;93158.13;;;30.89;34.77
9229;BME280;4649;42.644;23.284;2022-08-03T05:50:29;93167.09;;;30.88;34.76
9229;BME280;4649;42.644;23.284;2022-08-03T05:52:56;93237.69;;;31.40;35.35
9229;BME280;4649;42.644;23.284;2022-08-03T05:55:24;93185.91;;;31.12;35.21
9229;BME280;4649;42.644;23.284;2022-08-03T05:57:51;93190.03;;;30.98;35.06
9229;BME280;4649;42.644;23.284;2022-08-03T06:00:18;93179.22;;;30.79;35.48
9229;BME280;4649;42.644;23.284;2022-08-03T06:02:45;93155.59;;;30.55;35.63
9229;BME280;4649;42.644;23.284;2022-08-03T06:05:11;93164.94;;;30.86;35.49
9229;BME280;4649;42.644;23.284;2022-08-03T06:07:38;93170.13;;;30.65;36.58
9229;BME280;4649;42.644;23.284;2022-08-03T06:10:06;93142.19;;;30.27;36.13
9229;BME280;4649;42.644;23.284;2022-08-03T06:12:34;93179.13;;;30.39;36.54
9229;BME280;4649;42.644;23.284;2022-08-03T06:15:02;93243.72;;;31.21;36.00
9229;BME280;4649;42.644;23.284;2022-08-03T06:17:29;93226.09;;;31.19;36.17
9229;BME280;4649;42.644;23.284;2022-08-03T06:19:56;93244.72;;;31.14;35.60
9229;BME280;4649;42.644;23.284;2022-08-03T06:22:22;93244.84;;;31.16;36.13
9229;BME280;4649;42.644;23.284;2022-08-03T06:24:49;93184.84;;;31.06;35.73
9229;BME280;4649;42.644;23.284;2022-08-03T06:27:16;93160.31;;;31.04;35.45
9229;BME280;4649;42.644;23.284;2022-08-03T06:29:44;93146.63;;;31.10;34.44
9229;BME280;4649;42.644;23.284;2022-08-03T06:32:11;93203.09;;;31.20;34.80
9229;BME280;4649;42.644;23.284;2022-08-03T06:34:37;93184.31;;;31.36;34.49
9229;BME280;4649;42.644;23.284;2022-08-03T06:37:04;93177.63;;;31.01;35.66
9229;BME280;4649;42.644;23.284;2022-08-03T06:39:31;93204.84;;;31.27;35.44
9229;BME280;4649;42.644;23.284;2022-08-03T06:41:57;93249.69;;;31.69;34.95
9229;BME280;4649;42.644;23.284;2022-08-03T06:44:24;93252.59;;;31.04;35.91
9229;BME280;4649;42.644;23.284;2022-08-03T06:46:52;93181.06;;;30.48;35.97
9229;BME280;4649;42.644;23.284;2022-08-03T06:49:19;93249.00;;;30.90;35.89
9229;BME280;4649;42.644;23.284;2022-08-03T06:51:46;93177.78;;;30.02;35.30
9229;BME280;4649;42.644;23.284;2022-08-03T06:54:15;93181.69;;;29.97;36.72
9229;BME280;4649;42.644;23.284;2022-08-03T06:56:41;93240.47;;;30.37;37.95
9229;BME280;4649;42.644;23.284;2022-08-03T06:59:08;93181.28;;;30.27;36.93
9229;BME280;4649;42.644;23.284;2022-08-03T07:01:35;93188.19;;;30.51;35.71
9229;BME280;4649;42.644;23.284;2022-08-03T07:04:03;93236.63;;;30.55;36.91
9229;BME280;4649;42.644;23.284;2022-08-03T07:06:30;93208.19;;;30.34;37.46
9229;BME280;4649;42.644;23.284;2022-08-03T07:08:57;93176.38;;;30.14;36.92
9229;BME280;4649;42.644;23.284;2022-08-03T07:11:24;93127.31;;;29.98;35.89
9229;BME280;4649;42.644;23.284;2022-08-03T07:13:50;93248.78;;;31.38;36.15
9229;BME280;4649;42.644;23.284;2022-08-03T07:16:17;93124.34;;;30.72;34.38
9229;BME280;4649;42.644;23.284;2022-08-03T07:18:44;93194.06;;;31.62;35.49
9229;BME280;4649;42.644;23.284;2022-08-03T07:21:12;93200.50;;;31.51;33.55
9229;BME280;4649;42.644;23.284;2022-08-03T07:23:41;93184.84;;;31.06;34.24
9229;BME280;4649;42.644;23.284;2022-08-03T07:26:07;93255.31;;;31.29;34.59
9229;BME280;4649;42.644;23.284;2022-08-03T07:28:34;93252.09;;;31.21;34.22
9229;BME280;4649;42.644;23.284;2022-08-03T07:31:02;93234.69;;;31.09;34.99
9229;BME280;4649;42.644;23.284;2022-08-03T07:33:28;93206.56;;;30.81;34.62
9229;BME280;4649;42.644;23.284;2022-08-03T07:35:56;93197.19;;;31.14;34.09
9229;BME280;4649;42.644;23.284;2022-08-03T07:38:25;93199.66;;;31.35;32.86
9229;BME280;4649;42.644;23.284;2022-08-03T07:40:52;93259.22;;;32.33;33.59
9229;BME280;4649;42.644;23.284;2022-08-03T07:43:19;93256.31;;;32.31;32.91
9229;BME280;4649;42.644;23.284;2022-08-03T07:45:45;93226.59;;;32.11;34.63
9229;BME280;4649;42.644;23.284;2022-08-03T07:48:12;93169.47;;;31.60;33.19
9229;BME280;4649;42.644;23.284;2022-08-03T07:50:39;93187.94;;;31.94;32.34
9229;BME280;4649;42.644;23.284;2022-08-03T07:53:06;93257.84;;;33.23;32.95
9229;BME280;4649;42.644;23.284;2022-08-03T07:55:34;93198.56;;;33.15;32.41
9229;BME280;4649;42.644;23.284;2022-08-03T07:58:03;93196.28;;;33.11;31.49
9229;BME280;4649;42.644;23.284;2022-08-03T08:00:30;93192.44;;;32.59;30.29
9229;BME280;4649;42.644;23.284;2022-08-03T08:02:57;93198.16;;;32.91;33.50
9229;BME280;4649;42.644;23.284;2022-08-03T08:05:24;93205.06;;;33.04;32.21
9229;BME280;4649;42.644;23.284;2022-08-03T08:07:51;93149.31;;;32.81;31.00
9229;BME280;4649;42.644;23.284;2022-08-03T08:10:18;93209.38;;;33.22;31.62
9229;BME280;4649;42.644;23.284;2022-08-03T08:12:46;93267.97;;;33.14;30.13
9229;BME280;4649;42.644;23.284;2022-08-03T08:15:13;93243.22;;;32.80;30.23
9229;BME280;4649;42.644;23.284;2022-08-03T08:17:42;93262.22;;;32.97;29.03
9229;BME280;4649;42.644;23.284;2022-08-03T08:20:10;93220.06;;;32.64;30.78
9229;BME280;4649;42.644;23.284;2022-08-03T08:22:37;93218.44;;;32.59;30.78
9229;BME280;4649;42.644;23.284;2022-08-03T08:25:04;93268.56;;;32.82;31.58
9229;BME280;4649;42.644;23.284;2022-08-03T08:27:31;93233.94;;;32.47;30.66
9229;BME280;4649;42.644;23.284;2022-08-03T08:30:03;93191.41;;;32.37;32.09
9229;BME280;4649;42.644;23.284;2022-08-03T08:32:30;93214.75;;;32.41;31.24
9229;BME280;4649;42.644;23.284;2022-08-03T08:34:56;93205.31;;;32.19;31.84
9229;BME280;4649;42.644;23.284;2022-08-03T08:37:23;93222.13;;;32.19;32.07
9229;BME280;4649;42.644;23.284;2022-08-03T08:39:50;93263.28;;;32.59;31.64
9229;BME280;4649;42.644;23.284;2022-08-03T08:42:16;93252.47;;;32.38;31.20
9229;BME280;4649;42.644;23.284;2022-08-03T08:44:43;93205.47;;;32.08;31.35
9229;BME280;4649;42.644;23.284;2022-08-03T08:47:12;93255.53;;;32.44;30.91
9229;BME280;4649;42.644;23.284;2022-08-03T08:49:40;93211.78;;;32.09;30.65
9229;BME280;4649;42.644;23.284;2022-08-03T08:52:07;93259.72;;;32.59;31.88
9229;BME280;4649;42.644;23.284;2022-08-03T08:54:35;93197.97;;;32.12;30.22
9229;BME280;4649;42.644;23.284;2022-08-03T08:57:05;93171.50;;;32.15;30.60
9229;BME280;4649;42.644;23.284;2022-08-03T08:59:32;93206.25;;;32.39;31.02
9229;BME280;4649;42.644;23.284;2022-08-03T09:02:00;93247.34;;;32.64;29.74
9229;BME280;4649;42.644;23.284;2022-08-03T09:04:28;93243.03;;;32.61;29.24
9229;BME280;4649;42.644;23.284;2022-08-03T09:06:56;93182.78;;;31.89;28.83
9229;BME280;4649;42.644;23.284;2022-08-03T09:09:23;93253.56;;;32.18;30.08
9229;BME280;4649;42.644;23.284;2022-08-03T09:11:49;93209.16;;;32.41;29.57
9229;BME280;4649;42.644;23.284;2022-08-03T09:14:16;93252.09;;;32.90;29.40
9229;BME280;4649;42.644;23.284;2022-08-03T09:16:55;93254.81;;;32.88;29.12
9229;BME280;4649;42.644;23.284;2022-08-03T09:19:22;93196.13;;;32.48;29.09
9229;BME280;4649;42.644;23.284;2022-08-03T09:22:06;93248.84;;;32.80;28.86
9229;BME280;4649;42.644;23.284;2022-08-03T09:24:33;93188.53;;;32.06;29.68
9229;BME280;4649;42.644;23.284;2022-08-03T09:27:00;93204.41;;;32.30;28.91
9229;BME280;4649;42.644;23.284;2022-08-03T09:29:30;93192.81;;;31.94;29.15
9229;BME280;4649;42.644;23.284;2022-08-03T09:32:00;93182.22;;;32.06;29.08
9229;BME280;4649;42.644;23.284;2022-08-03T09:34:27;93201.25;;;32.22;30.29
9229;BME280;4649;42.644;23.284;2022-08-03T09:36:55;93190.91;;;32.11;28.42
9229;BME280;4649;42.644;23.284;2022-08-03T09:39:24;93131.25;;;31.80;28.47
9229;BME280;4649;42.644;23.284;2022-08-03T09:42:04;93260.78;;;32.65;29.54
9229;BME280;4649;42.644;23.284;2022-08-03T09:44:35;93202.69;;;32.23;28.07
9229;BME280;4649;42.644;23.284;2022-08-03T09:47:03;93191.88;;;32.03;27.83
9229;BME280;4649;42.644;23.284;2022-08-03T09:49:30;93252.91;;;32.48;28.62
9229;BME280;4649;42.644;23.284;2022-08-03T09:52:11;93251.72;;;32.67;30.11
9229;BME280;4649;42.644;23.284;2022-08-03T09:54:39;93185.59;;;32.17;28.21
9229;BME280;4649;42.644;23.284;2022-08-03T09:57:06;93246.28;;;32.71;28.22
9229;BME280;4649;42.644;23.284;2022-08-03T09:59:35;93225.09;;;32.52;28.59
9229;BME280;4649;42.644;23.284;2022-08-03T10:02:02;93242.69;;;32.68;29.14
9229;BME280;4649;42.644;23.284;2022-08-03T10:04:29;93216.44;;;32.77;30.37
9229;BME280;4649;42.644;23.284;2022-08-03T10:07:04;93239.28;;;33.16;28.01
9229;BME280;4649;42.644;23.284;2022-08-03T10:09:32;93172.59;;;32.39;29.64
9229;BME280;4649;42.644;23.284;2022-08-03T10:12:06;93218.06;;;32.67;27.97
9229;BME280;4649;42.644;23.284;2022-08-03T10:14:36;93230.75;;;32.68;28.30
9229;BME280;4649;42.644;23.284;2022-08-03T10:17:03;93187.53;;;32.28;29.16
9229;BME280;4649;42.644;23.284;2022-08-03T10:19:30;93171.03;;;31.92;30.49
9229;BME280;4649;42.644;23.284;2022-08-03T10:22:01;93166.06;;;31.62;28.17
9229;BME280;4649;42.644;23.284;2022-08-03T10:24:33;93161.50;;;31.55;29.00
9229;BME280;4649;42.644;23.284;2022-08-03T10:27:02;93237.63;;;31.94;30.32
9229;BME280;4649;42.644;23.284;2022-08-03T10:29:34;93189.81;;;31.34;30.49
9229;BME280;4649;42.644;23.284;2022-08-03T10:32:03;93175.84;;;31.34;30.02
9229;BME280;4649;42.644;23.284;2022-08-03T10:34:34;93225.00;;;31.79;30.58
9229;BME280;4649;42.644;23.284;2022-08-03T10:37:09;93161.84;;;31.48;30.11
9229;BME280;4649;42.644;23.284;2022-08-03T10:39:38;93175.09;;;31.47;29.98
9229;BME280;4649;42.644;23.284;2022-08-03T10:42:22;93170.53;;;31.53;29.18
9229;BME280;4649;42.644;23.284;2022-08-03T10:44:53;93228.75;;;31.84;30.22
9229;BME280;4649;42.644;23.284;2022-08-03T10:47:21;93156.84;;;31.59;30.55
9229;BME280;4649;42.644;23.284;2022-08-03T10:49:48;93154.69;;;31.31;29.75
9229;BME280;4649;42.644;23.284;2022-08-03T10:52:15;93153.84;;;31.42;30.67
9229;BME280;4649;42.644;23.284;2022-08-03T10:54:44;93151.66;;;31.54;30.18
9229;BME280;4649;42.644;23.284;2022-08-03T10:57:46;93160.47;;;31.35;31.10
9229;BME280;4649;42.644;23.284;2022-08-03T11:00:14;93193.56;;;31.25;30.80
9229;BME280;4649;42.644;23.284;2022-08-03T11:03:09;93221.22;;;31.19;29.81
9229;BME280;4649;42.644;23.284;2022-08-03T11:05:38;93112.66;;;30.11;31.23
9229;BME280;4649;42.644;23.284;2022-08-03T11:08:22;93146.88;;;30.11;32.61
9229;BME280;4649;42.644;23.284;2022-08-03T11:10:53;93133.34;;;30.19;32.24
9229;BME280;4649;42.644;23.284;2022-08-03T11:13:21;93136.91;;;30.33;32.05
9229;BME280;4649;42.644;23.284;2022-08-03T11:15:51;93208.31;;;30.87;32.10
9229;BME280;4649;42.644;23.284;2022-08-03T11:18:18;93128.16;;;30.52;32.14
9229;BME280;4649;42.644;23.284;2022-08-03T11:20:49;93207.84;;;31.04;32.21
9229;BME280;4649;42.644;23.284;2022-08-03T11:23:18;93129.31;;;30.60;31.21
9229;BME280;4649;42.644;23.284;2022-08-03T11:26:13;93206.41;;;31.30;31.37
9229;BME280;4649;42.644;23.284;2022-08-03T11:28:44;93133.59;;;31.01;30.81
9229;BME280;4649;42.644;23.284;2022-08-03T11:31:44;93139.69;;;31.11;29.45
9229;BME280;4649;42.644;23.284;2022-08-03T11:34:14;93190.22;;;31.42;29.26
9229;BME280;4649;42.644;23.284;2022-08-03T11:37:16;93187.69;;;31.75;29.45
9229;BME280;4649;42.644;23.284;2022-08-03T11:39:45;93110.03;;;31.33;29.14
9229;BME280;4649;42.644;23.284;2022-08-03T11:42:39;93176.63;;;31.92;28.55
9229;BME280;4649;42.644;23.284;2022-08-03T11:45:07;93160.16;;;31.43;28.41
9229;BME280;4649;42.644;23.284;2022-08-03T11:47:39;93119.34;;;29.81;29.56
9229;BME280;4649;42.644;23.284;2022-08-03T11:50:07;93109.06;;;29.11;31.50
9229;BME280;4649;42.644;23.284;2022-08-03T11:52:36;93162.38;;;29.64;31.13
9229;BME280;4649;42.644;23.284;2022-08-03T11:55:12;93117.63;;;29.62;30.66
9229;BME280;4649;42.644;23.284;2022-08-03T11:57:40;93100.22;;;29.75;31.38
9229;BME280;4649;42.644;23.284;2022-08-03T12:00:28;93118.59;;;29.92;31.78
9229;BME280;4649;42.644;23.284;2022-08-03T12:03:00;93100.78;;;29.85;31.60
9229;BME280;4649;42.644;23.284;2022-08-03T12:05:41;93115.69;;;30.28;30.65
9229;BME280;4649;42.644;23.284;2022-08-03T12:08:09;93107.41;;;30.30;30.64
9229;BME280;4649;42.644;23.284;2022-08-03T12:10:37;93106.91;;;30.33;30.56
9229;BME280;4649;42.644;23.284;2022-08-03T12:13:06;93068.84;;;29.88;30.96
9229;BME280;4649;42.644;23.284;2022-08-03T12:15:34;93116.34;;;30.40;30.73
9229;BME280;4649;42.644;23.284;2022-08-03T12:18:12;93171.66;;;30.68;32.05
9229;BME280;4649;42.644;23.284;2022-08-03T12:20:40;93103.03;;;30.14;32.47
9229;BME280;4649;42.644;23.284;2022-08-03T12:23:07;93106.78;;;30.18;32.12
9229;BME280;4649;42.644;23.284;2022-08-03T12:25:35;93184.09;;;30.79;32.99
9229;BME280;4649;42.644;23.284;2022-08-03T12:28:11;93100.59;;;30.33;31.91
9229;BME280;4649;42.644;23.284;2022-08-03T12:30:41;93138.13;;;30.82;30.48
9229;BME280;4649;42.644;23.284;2022-08-03T12:33:16;93113.69;;;30.55;30.72
9229;BME280;4649;42.644;23.284;2022-08-03T12:35:46;93164.13;;;30.71;32.11
9229;BME280;4649;42.644;23.284;2022-08-03T12:38:18;93099.53;;;30.13;30.91
9229;BME280;4649;42.644;23.284;2022-08-03T12:40:54;93174.53;;;30.57;32.58
9229;BME280;4649;42.644;23.284;2022-08-03T12:43:23;93169.50;;;30.67;33.05
9229;BME280;4649;42.644;23.284;2022-08-03T12:45:50;93114.16;;;30.38;31.90
9229;BME280;4649;42.644;23.284;2022-08-03T12:48:17;93158.94;;;30.92;32.20
9229;BME280;4649;42.644;23.284;2022-08-03T12:50:44;93132.63;;;30.83;31.69
9229;BME280;4649;42.644;23.284;2022-08-03T12:53:10;93097.44;;;30.65;31.76
9229;BME280;4649;42.644;23.284;2022-08-03T12:55:37;93079.00;;;30.74;31.84
9229;BME280;4649;42.644;23.284;2022-08-03T12:58:05;93080.78;;;30.81;32.32
9229;BME280;4649;42.644;23.284;2022-08-03T13:00:36;93078.38;;;30.75;32.47
9229;BME280;4649;42.644;23.284;2022-08-03T13:03:06;93076.00;;;30.96;31.77
9229;BME280;4649;42.644;23.284;2022-08-03T13:05:41;93097.72;;;31.25;32.97
9229;BME280;4649;42.644;23.284;2022-08-03T13:08:17;93149.28;;;31.35;31.57
9229;BME280;4649;42.644;23.284;2022-08-03T13:10:44;93060.06;;;31.12;31.11
9229;BME280;4649;42.644;23.284;2022-08-03T13:13:11;93072.94;;;31.33;31.11
9229;BME280;4649;42.644;23.284;2022-08-03T13:15:39;93120.22;;;31.69;30.70
9229;BME280;4649;42.644;23.284;2022-08-03T13:18:06;93129.59;;;31.89;30.14
9229;BME280;4649;42.644;23.284;2022-08-03T13:20:33;93119.25;;;31.78;30.44
9229;BME280;4649;42.644;23.284;2022-08-03T13:23:00;93088.69;;;31.26;31.09